sensor_id;sensor_type;location;lat;lon;timestamp;P1;durP1;ratioP1;P2;durP2;ratioP2
20348;SDS011;10332;50.208;18.988;2023-08-30T00:01:19;13.05;;;9.23;;
20348;SDS011;10332;50.208;18.988;2023-08-30T00:04:46;12.90;;;9.20;;
20348;SDS011;10332;50.208;18.988;2023-08-30T00:08:11;10.95;;;7.85;;
20348;SDS011;10332;50.208;18.988;2023-08-30T00:11:39;13.80;;;8.60;;
20348;SDS011;10332;50.208;18.988;2023-08-30T00:15:05;13.10;;;8.38;;
20348;SDS011;10332;50.208;18.988;2023-08-30T00:18:32;10.02;;;6.97;;
20348;SDS011;10332;50.208;18.988;2023-08-30T00:21:58;11.40;;;7.35;;
20348;SDS011;10332;50.208;18.988;2023-08-30T00:25:24;11.30;;;8.05;;
20348;SDS011;10332;50.208;18.988;2023-08-30T00:28:50;11.73;;;8.52;;
20348;SDS011;10332;50.208;18.988;2023-08-30T00:32:16;13.27;;;9.60;;
20348;SDS011;10332;50.208;18.988;2023-08-30T00:35:42;8.98;;;6.45;;
20348;SDS011;10332;50.208;18.988;2023-08-30T00:39:08;6.93;;;5.50;;
20348;SDS011;10332;50.208;18.988;2023-08-30T00:42:34;9.07;;;6.70;;
20348;SDS011;10332;50.208;18.988;2023-08-30T00:46:00;8.50;;;6.28;;
20348;SDS011;10332;50.208;18.988;2023-08-30T00:49:28;6.63;;;5.25;;
20348;SDS011;10332;50.208;18.988;2023-08-30T00:52:58;10.23;;;6.55;;
20348;SDS011;10332;50.208;18.988;2023-08-30T00:56:27;7.20;;;5.53;;
20348;SDS011;10332;50.208;18.988;2023-08-30T00:59:53;6.53;;;5.20;;
20348;SDS011;10332;50.208;18.988;2023-08-30T01:03:21;7.30;;;5.45;;
20348;SDS011;10332;50.208;18.988;2023-08-30T01:06:47;10.13;;;6.75;;
20348;SDS011;10332;50.208;18.988;2023-08-30T01:10:13;9.70;;;5.90;;
20348;SDS011;10332;50.208;18.988;2023-08-30T01:13:58;7.90;;;5.82;;
20348;SDS011;10332;50.208;18.988;2023-08-30T01:17:36;8.35;;;5.07;;
20348;SDS011;10332;50.208;18.988;2023-08-30T01:21:07;8.07;;;5.90;;
20348;SDS011;10332;50.208;18.988;2023-08-30T01:28:42;7.20;;;5.70;;
20348;SDS011;10332;50.208;18.988;2023-08-30T01:32:11;6.03;;;4.97;;
20348;SDS011;10332;50.208;18.988;2023-08-30T01:35:41;6.65;;;5.20;;
20348;SDS011;10332;50.208;18.988;2023-08-30T01:39:10;6.57;;;4.63;;
20348;SDS011;10332;50.208;18.988;2023-08-30T01:42:37;6.53;;;5.55;;
20348;SDS011;10332;50.208;18.988;2023-08-30T01:46:04;5.45;;;4.40;;
20348;SDS011;10332;50.208;18.988;2023-08-30T01:49:32;7.45;;;5.53;;
20348;SDS011;10332;50.208;18.988;2023-08-30T01:52:59;6.13;;;4.55;;
20348;SDS011;10332;50.208;18.988;2023-08-30T01:56:29;3.60;;;3.30;;
20348;SDS011;10332;50.208;18.988;2023-08-30T01:59:55;4.78;;;3.72;;
20348;SDS011;10332;50.208;18.988;2023-08-30T02:03:21;4.38;;;3.78;;
20348;SDS011;10332;50.208;18.988;2023-08-30T02:10:36;10.52;;;7.63;;
20348;SDS011;10332;50.208;18.988;2023-08-30T02:14:08;14.57;;;9.48;;
20348;SDS011;10332;50.208;18.988;2023-08-30T02:17:37;8.50;;;6.50;;
20348;SDS011;10332;50.208;18.988;2023-08-30T02:21:03;10.80;;;7.05;;
20348;SDS011;10332;50.208;18.988;2023-08-30T02:24:30;9.73;;;7.25;;
20348;SDS011;10332;50.208;18.988;2023-08-30T02:27:55;9.48;;;7.07;;
20348;SDS011;10332;50.208;18.988;2023-08-30T02:31:22;10.75;;;7.63;;
20348;SDS011;10332;50.208;18.988;2023-08-30T02:34:49;11.70;;;7.95;;
20348;SDS011;10332;50.208;18.988;2023-08-30T02:38:17;15.18;;;10.32;;
20348;SDS011;10332;50.208;18.988;2023-08-30T02:41:42;18.75;;;12.00;;
20348;SDS011;10332;50.208;18.988;2023-08-30T02:45:09;21.63;;;13.45;;
20348;SDS011;10332;50.208;18.988;2023-08-30T02:48:34;17.90;;;11.32;;
20348;SDS011;10332;50.208;18.988;2023-08-30T02:52:02;16.20;;;10.65;;
20348;SDS011;10332;50.208;18.988;2023-08-30T02:55:28;17.08;;;12.10;;
20348;SDS011;10332;50.208;18.988;2023-08-30T02:58:54;16.90;;;11.38;;
20348;SDS011;10332;50.208;18.988;2023-08-30T03:02:20;14.93;;;10.55;;
20348;SDS011;10332;50.208;18.988;2023-08-30T03:05:46;17.75;;;11.25;;
20348;SDS011;10332;50.208;18.988;2023-08-30T03:09:12;20.70;;;13.85;;
20348;SDS011;10332;50.208;18.988;2023-08-30T03:12:38;18.40;;;11.60;;
20348;SDS011;10332;50.208;18.988;2023-08-30T03:16:14;20.45;;;12.98;;
20348;SDS011;10332;50.208;18.988;2023-08-30T03:19:41;18.38;;;12.40;;
20348;SDS011;10332;50.208;18.988;2023-08-30T03:23:07;16.85;;;11.68;;
20348;SDS011;10332;50.208;18.988;2023-08-30T03:26:33;17.25;;;11.10;;
20348;SDS011;10332;50.208;18.988;2023-08-30T03:29:59;20.17;;;13.05;;
20348;SDS011;10332;50.208;18.988;2023-08-30T03:33:25;20.98;;;14.20;;
20348;SDS011;10332;50.208;18.988;2023-08-30T03:36:51;17.00;;;11.32;;
20348;SDS011;10332;50.208;18.988;2023-08-30T03:40:17;17.98;;;11.57;;
20348;SDS011;10332;50.208;18.988;2023-08-30T03:43:44;21.65;;;14.02;;
20348;SDS011;10332;50.208;18.988;2023-08-30T03:47:10;23.45;;;13.32;;
20348;SDS011;10332;50.208;18.988;2023-08-30T03:50:36;22.42;;;13.43;;
20348;SDS011;10332;50.208;18.988;2023-08-30T03:54:02;23.63;;;14.20;;
20348;SDS011;10332;50.208;18.988;2023-08-30T03:57:28;20.85;;;13.27;;
20348;SDS011;10332;50.208;18.988;2023-08-30T04:00:54;33.92;;;18.15;;
20348;SDS011;10332;50.208;18.988;2023-08-30T04:04:22;25.67;;;15.70;;
20348;SDS011;10332;50.208;18.988;2023-08-30T04:07:48;30.15;;;18.40;;
20348;SDS011;10332;50.208;18.988;2023-08-30T04:11:14;24.98;;;14.98;;
20348;SDS011;10332;50.208;18.988;2023-08-30T04:14:40;23.42;;;14.88;;
20348;SDS011;10332;50.208;18.988;2023-08-30T04:18:06;25.75;;;16.05;;
20348;SDS011;10332;50.208;18.988;2023-08-30T04:21:32;22.75;;;14.07;;
20348;SDS011;10332;50.208;18.988;2023-08-30T04:25:01;28.83;;;17.60;;
20348;SDS011;10332;50.208;18.988;2023-08-30T04:28:28;22.35;;;14.50;;
20348;SDS011;10332;50.208;18.988;2023-08-30T04:31:53;23.25;;;14.23;;
20348;SDS011;10332;50.208;18.988;2023-08-30T04:35:20;19.95;;;11.90;;
20348;SDS011;10332;50.208;18.988;2023-08-30T04:38:46;21.30;;;13.18;;
20348;SDS011;10332;50.208;18.988;2023-08-30T04:42:15;22.50;;;13.40;;
20348;SDS011;10332;50.208;18.988;2023-08-30T04:45:41;22.35;;;14.32;;
20348;SDS011;10332;50.208;18.988;2023-08-30T04:49:07;30.77;;;21.00;;
20348;SDS011;10332;50.208;18.988;2023-08-30T04:52:33;29.98;;;20.05;;
20348;SDS011;10332;50.208;18.988;2023-08-30T04:55:59;25.83;;;17.88;;
20348;SDS011;10332;50.208;18.988;2023-08-30T04:59:25;23.83;;;15.25;;
20348;SDS011;10332;50.208;18.988;2023-08-30T05:02:51;24.13;;;15.30;;
20348;SDS011;10332;50.208;18.988;2023-08-30T05:06:17;27.88;;;16.70;;
20348;SDS011;10332;50.208;18.988;2023-08-30T05:09:43;22.23;;;14.02;;
20348;SDS011;10332;50.208;18.988;2023-08-30T05:13:09;22.20;;;15.30;;
20348;SDS011;10332;50.208;18.988;2023-08-30T05:16:39;27.40;;;17.13;;
20348;SDS011;10332;50.208;18.988;2023-08-30T05:20:05;30.20;;;18.23;;
20348;SDS011;10332;50.208;18.988;2023-08-30T05:23:32;39.75;;;24.52;;
20348;SDS011;10332;50.208;18.988;2023-08-30T05:26:58;29.92;;;18.70;;
20348;SDS011;10332;50.208;18.988;2023-08-30T05:30:24;30.35;;;18.70;;
20348;SDS011;10332;50.208;18.988;2023-08-30T05:33:49;23.35;;;14.40;;
20348;SDS011;10332;50.208;18.988;2023-08-30T05:37:15;21.70;;;13.52;;
20348;SDS011;10332;50.208;18.988;2023-08-30T05:40:46;14.27;;;9.68;;
20348;SDS011;10332;50.208;18.988;2023-08-30T05:44:13;17.52;;;11.25;;
20348;SDS011;10332;50.208;18.988;2023-08-30T05:47:39;19.92;;;12.00;;
20348;SDS011;10332;50.208;18.988;2023-08-30T05:51:05;21.05;;;13.05;;
20348;SDS011;10332;50.208;18.988;2023-08-30T05:54:31;26.80;;;18.55;;
20348;SDS011;10332;50.208;18.988;2023-08-30T05:57:57;25.08;;;16.88;;
20348;SDS011;10332;50.208;18.988;2023-08-30T06:01:23;21.65;;;14.57;;
20348;SDS011;10332;50.208;18.988;2023-08-30T06:04:49;18.40;;;13.98;;
20348;SDS011;10332;50.208;18.988;2023-08-30T06:08:17;26.70;;;17.92;;
20348;SDS011;10332;50.208;18.988;2023-08-30T06:11:44;17.20;;;11.55;;
20348;SDS011;10332;50.208;18.988;2023-08-30T06:15:09;26.77;;;17.05;;
20348;SDS011;10332;50.208;18.988;2023-08-30T06:18:36;21.35;;;15.43;;
20348;SDS011;10332;50.208;18.988;2023-08-30T06:22:01;14.48;;;10.25;;
20348;SDS011;10332;50.208;18.988;2023-08-30T06:25:29;11.30;;;8.27;;
20348;SDS011;10332;50.208;18.988;2023-08-30T06:28:55;17.92;;;10.32;;
20348;SDS011;10332;50.208;18.988;2023-08-30T06:32:21;15.15;;;9.75;;
20348;SDS011;10332;50.208;18.988;2023-08-30T06:35:47;12.75;;;9.63;;
20348;SDS011;10332;50.208;18.988;2023-08-30T06:39:15;16.33;;;10.88;;
20348;SDS011;10332;50.208;18.988;2023-08-30T06:42:43;14.40;;;9.93;;
20348;SDS011;10332;50.208;18.988;2023-08-30T06:46:09;9.25;;;7.20;;
20348;SDS011;10332;50.208;18.988;2023-08-30T06:49:35;11.05;;;8.02;;
20348;SDS011;10332;50.208;18.988;2023-08-30T06:53:02;11.77;;;8.48;;
20348;SDS011;10332;50.208;18.988;2023-08-30T06:56:28;13.40;;;8.48;;
20348;SDS011;10332;50.208;18.988;2023-08-30T06:59:55;11.70;;;8.70;;
20348;SDS011;10332;50.208;18.988;2023-08-30T07:03:23;11.05;;;9.38;;
20348;SDS011;10332;50.208;18.988;2023-08-30T07:06:49;11.25;;;8.48;;
20348;SDS011;10332;50.208;18.988;2023-08-30T07:10:16;11.23;;;7.20;;
20348;SDS011;10332;50.208;18.988;2023-08-30T07:13:58;17.65;;;11.43;;
20348;SDS011;10332;50.208;18.988;2023-08-30T07:17:26;25.05;;;18.50;;
20348;SDS011;10332;50.208;18.988;2023-08-30T07:20:54;10.10;;;7.07;;
20348;SDS011;10332;50.208;18.988;2023-08-30T07:24:20;6.85;;;5.30;;
20348;SDS011;10332;50.208;18.988;2023-08-30T07:27:46;5.40;;;4.53;;
20348;SDS011;10332;50.208;18.988;2023-08-30T07:31:12;10.48;;;6.20;;
20348;SDS011;10332;50.208;18.988;2023-08-30T07:34:38;7.97;;;6.10;;
20348;SDS011;10332;50.208;18.988;2023-08-30T07:38:05;9.15;;;6.10;;
20348;SDS011;10332;50.208;18.988;2023-08-30T07:41:33;10.70;;;7.40;;
20348;SDS011;10332;50.208;18.988;2023-08-30T07:44:59;6.40;;;5.10;;
20348;SDS011;10332;50.208;18.988;2023-08-30T07:48:26;7.20;;;4.32;;
20348;SDS011;10332;50.208;18.988;2023-08-30T07:51:51;7.47;;;5.00;;
20348;SDS011;10332;50.208;18.988;2023-08-30T07:55:18;8.27;;;4.93;;
20348;SDS011;10332;50.208;18.988;2023-08-30T07:58:43;5.10;;;3.53;;
20348;SDS011;10332;50.208;18.988;2023-08-30T08:02:09;3.42;;;2.63;;
20348;SDS011;10332;50.208;18.988;2023-08-30T08:05:37;3.90;;;2.70;;
20348;SDS011;10332;50.208;18.988;2023-08-30T08:09:04;3.28;;;2.80;;
20348;SDS011;10332;50.208;18.988;2023-08-30T08:12:32;9.90;;;8.27;;
20348;SDS011;10332;50.208;18.988;2023-08-30T08:15:59;9.85;;;7.60;;
20348;SDS011;10332;50.208;18.988;2023-08-30T08:19:25;4.82;;;4.07;;
20348;SDS011;10332;50.208;18.988;2023-08-30T08:22:51;4.72;;;3.95;;
20348;SDS011;10332;50.208;18.988;2023-08-30T08:26:17;2.55;;;2.35;;
20348;SDS011;10332;50.208;18.988;2023-08-30T08:29:43;2.50;;;2.30;;
20348;SDS011;10332;50.208;18.988;2023-08-30T08:33:10;2.35;;;2.10;;
20348;SDS011;10332;50.208;18.988;2023-08-30T08:36:40;3.05;;;2.75;;
20348;SDS011;10332;50.208;18.988;2023-08-30T08:40:07;5.88;;;5.25;;
20348;SDS011;10332;50.208;18.988;2023-08-30T08:43:39;6.90;;;5.40;;
20348;SDS011;10332;50.208;18.988;2023-08-30T08:47:08;6.75;;;3.50;;
20348;SDS011;10332;50.208;18.988;2023-08-30T08:50:36;2.72;;;2.30;;
20348;SDS011;10332;50.208;18.988;2023-08-30T08:54:03;2.70;;;2.17;;
20348;SDS011;10332;50.208;18.988;2023-08-30T08:57:30;1.75;;;1.30;;
20348;SDS011;10332;50.208;18.988;2023-08-30T09:00:56;2.20;;;1.92;;
20348;SDS011;10332;50.208;18.988;2023-08-30T09:04:23;2.70;;;2.50;;
20348;SDS011;10332;50.208;18.988;2023-08-30T09:07:50;3.40;;;2.50;;
20348;SDS011;10332;50.208;18.988;2023-08-30T09:11:16;6.10;;;4.88;;
20348;SDS011;10332;50.208;18.988;2023-08-30T09:14:52;8.35;;;6.22;;
20348;SDS011;10332;50.208;18.988;2023-08-30T09:18:19;6.47;;;4.60;;
20348;SDS011;10332;50.208;18.988;2023-08-30T09:21:56;4.63;;;3.40;;
20348;SDS011;10332;50.208;18.988;2023-08-30T09:25:24;5.47;;;4.63;;
20348;SDS011;10332;50.208;18.988;2023-08-30T09:28:51;4.88;;;3.40;;
20348;SDS011;10332;50.208;18.988;2023-08-30T09:32:20;5.10;;;4.15;;
20348;SDS011;10332;50.208;18.988;2023-08-30T09:35:52;4.65;;;3.15;;
20348;SDS011;10332;50.208;18.988;2023-08-30T09:39:19;3.42;;;3.08;;
20348;SDS011;10332;50.208;18.988;2023-08-30T09:42:46;3.85;;;2.50;;
20348;SDS011;10332;50.208;18.988;2023-08-30T09:46:23;3.60;;;2.50;;
20348;SDS011;10332;50.208;18.988;2023-08-30T09:49:57;2.47;;;2.25;;
20348;SDS011;10332;50.208;18.988;2023-08-30T09:53:28;1.48;;;1.30;;
20348;SDS011;10332;50.208;18.988;2023-08-30T09:57:05;3.70;;;3.25;;
20348;SDS011;10332;50.208;18.988;2023-08-30T10:00:33;5.63;;;4.20;;
20348;SDS011;10332;50.208;18.988;2023-08-30T10:04:02;3.17;;;2.30;;
20348;SDS011;10332;50.208;18.988;2023-08-30T10:07:31;2.47;;;2.22;;
20348;SDS011;10332;50.208;18.988;2023-08-30T10:10:59;4.93;;;4.00;;
20348;SDS011;10332;50.208;18.988;2023-08-30T10:14:28;10.30;;;8.82;;
20348;SDS011;10332;50.208;18.988;2023-08-30T10:17:57;9.40;;;8.32;;
20348;SDS011;10332;50.208;18.988;2023-08-30T10:21:31;9.05;;;7.13;;
20348;SDS011;10332;50.208;18.988;2023-08-30T10:25:05;2.15;;;1.95;;
20348;SDS011;10332;50.208;18.988;2023-08-30T10:28:34;3.58;;;2.90;;
20348;SDS011;10332;50.208;18.988;2023-08-30T10:32:03;2.42;;;1.40;;
20348;SDS011;10332;50.208;18.988;2023-08-30T10:35:46;1.90;;;1.70;;
20348;SDS011;10332;50.208;18.988;2023-08-30T10:39:32;4.65;;;3.25;;
20348;SDS011;10332;50.208;18.988;2023-08-30T10:43:03;2.53;;;2.30;;
20348;SDS011;10332;50.208;18.988;2023-08-30T10:46:30;2.10;;;2.00;;
20348;SDS011;10332;50.208;18.988;2023-08-30T10:50:06;3.45;;;3.15;;
20348;SDS011;10332;50.208;18.988;2023-08-30T10:53:57;3.70;;;3.40;;
20348;SDS011;10332;50.208;18.988;2023-08-30T10:57:35;3.40;;;2.90;;
20348;SDS011;10332;50.208;18.988;2023-08-30T11:01:09;3.17;;;2.88;;
20348;SDS011;10332;50.208;18.988;2023-08-30T11:04:39;3.60;;;3.13;;
20348;SDS011;10332;50.208;18.988;2023-08-30T11:08:10;2.83;;;2.58;;
20348;SDS011;10332;50.208;18.988;2023-08-30T11:11:37;7.45;;;6.57;;
20348;SDS011;10332;50.208;18.988;2023-08-30T11:15:06;9.43;;;8.50;;
20348;SDS011;10332;50.208;18.988;2023-08-30T11:18:37;8.32;;;7.05;;
20348;SDS011;10332;50.208;18.988;2023-08-30T11:22:03;9.15;;;7.75;;
20348;SDS011;10332;50.208;18.988;2023-08-30T11:25:29;9.68;;;8.23;;
20348;SDS011;10332;50.208;18.988;2023-08-30T11:28:56;5.22;;;4.63;;
20348;SDS011;10332;50.208;18.988;2023-08-30T11:32:26;4.38;;;3.63;;
20348;SDS011;10332;50.208;18.988;2023-08-30T11:35:52;7.50;;;6.45;;
20348;SDS011;10332;50.208;18.988;2023-08-30T11:39:19;7.47;;;6.35;;
20348;SDS011;10332;50.208;18.988;2023-08-30T11:42:46;7.40;;;6.70;;
20348;SDS011;10332;50.208;18.988;2023-08-30T11:46:17;6.75;;;5.43;;
20348;SDS011;10332;50.208;18.988;2023-08-30T11:49:53;3.08;;;2.75;;
20348;SDS011;10332;50.208;18.988;2023-08-30T11:53:23;2.90;;;1.80;;
20348;SDS011;10332;50.208;18.988;2023-08-30T11:56:50;2.65;;;1.98;;
20348;SDS011;10332;50.208;18.988;2023-08-30T12:00:18;4.50;;;3.67;;
20348;SDS011;10332;50.208;18.988;2023-08-30T12:03:45;6.90;;;3.53;;
20348;SDS011;10332;50.208;18.988;2023-08-30T12:07:21;4.22;;;3.13;;
20348;SDS011;10332;50.208;18.988;2023-08-30T12:10:56;4.47;;;2.95;;
20348;SDS011;10332;50.208;18.988;2023-08-30T12:14:34;4.93;;;3.72;;
20348;SDS011;10332;50.208;18.988;2023-08-30T12:18:07;4.55;;;3.67;;
20348;SDS011;10332;50.208;18.988;2023-08-30T12:21:40;3.63;;;2.90;;
20348;SDS011;10332;50.208;18.988;2023-08-30T12:25:17;4.68;;;3.40;;
20348;SDS011;10332;50.208;18.988;2023-08-30T12:28:46;4.68;;;3.97;;
20348;SDS011;10332;50.208;18.988;2023-08-30T12:32:12;3.53;;;3.20;;
20348;SDS011;10332;50.208;18.988;2023-08-30T12:35:42;4.72;;;4.28;;
20348;SDS011;10332;50.208;18.988;2023-08-30T12:39:08;5.22;;;4.13;;
20348;SDS011;10332;50.208;18.988;2023-08-30T12:42:35;3.95;;;3.55;;
20348;SDS011;10332;50.208;18.988;2023-08-30T12:46:01;3.55;;;3.20;;
20348;SDS011;10332;50.208;18.988;2023-08-30T12:49:27;2.70;;;2.38;;
20348;SDS011;10332;50.208;18.988;2023-08-30T12:52:53;2.50;;;2.30;;
20348;SDS011;10332;50.208;18.988;2023-08-30T12:56:19;2.08;;;1.98;;
20348;SDS011;10332;50.208;18.988;2023-08-30T12:59:45;3.00;;;2.20;;
20348;SDS011;10332;50.208;18.988;2023-08-30T13:03:11;3.17;;;2.88;;
20348;SDS011;10332;50.208;18.988;2023-08-30T13:06:37;3.10;;;2.80;;
20348;SDS011;10332;50.208;18.988;2023-08-30T13:10:03;3.20;;;2.83;;
20348;SDS011;10332;50.208;18.988;2023-08-30T13:13:30;3.60;;;3.30;;
20348;SDS011;10332;50.208;18.988;2023-08-30T13:16:56;3.78;;;3.42;;
20348;SDS011;10332;50.208;18.988;2023-08-30T13:20:22;3.35;;;3.05;;
20348;SDS011;10332;50.208;18.988;2023-08-30T13:24:06;2.50;;;2.30;;
20348;SDS011;10332;50.208;18.988;2023-08-30T13:27:32;2.97;;;2.78;;
20348;SDS011;10332;50.208;18.988;2023-08-30T13:30:59;9.20;;;5.80;;
20348;SDS011;10332;50.208;18.988;2023-08-30T13:34:25;6.13;;;4.65;;
20348;SDS011;10332;50.208;18.988;2023-08-30T13:37:51;10.10;;;9.07;;
20348;SDS011;10332;50.208;18.988;2023-08-30T13:41:17;10.65;;;8.93;;
20348;SDS011;10332;50.208;18.988;2023-08-30T13:44:43;9.32;;;8.32;;
20348;SDS011;10332;50.208;18.988;2023-08-30T13:48:10;9.00;;;8.10;;
20348;SDS011;10332;50.208;18.988;2023-08-30T13:51:36;8.80;;;7.90;;
20348;SDS011;10332;50.208;18.988;2023-08-30T13:55:02;9.63;;;8.60;;
20348;SDS011;10332;50.208;18.988;2023-08-30T13:58:28;8.80;;;7.90;;
20348;SDS011;10332;50.208;18.988;2023-08-30T14:01:55;7.78;;;6.97;;
20348;SDS011;10332;50.208;18.988;2023-08-30T14:05:21;5.82;;;5.20;;
20348;SDS011;10332;50.208;18.988;2023-08-30T14:08:47;6.00;;;5.40;;
20348;SDS011;10332;50.208;18.988;2023-08-30T14:12:13;4.90;;;4.43;;
20348;SDS011;10332;50.208;18.988;2023-08-30T14:15:40;6.97;;;6.15;;
20348;SDS011;10332;50.208;18.988;2023-08-30T14:19:07;17.92;;;15.80;;
20348;SDS011;10332;50.208;18.988;2023-08-30T14:22:33;14.02;;;12.40;;
20348;SDS011;10332;50.208;18.988;2023-08-30T14:26:00;6.78;;;6.07;;
20348;SDS011;10332;50.208;18.988;2023-08-30T14:29:30;6.65;;;5.00;;
20348;SDS011;10332;50.208;18.988;2023-08-30T14:32:57;3.63;;;3.33;;
20348;SDS011;10332;50.208;18.988;2023-08-30T14:36:25;3.38;;;3.08;;
20348;SDS011;10332;50.208;18.988;2023-08-30T14:39:52;3.53;;;3.22;;
20348;SDS011;10332;50.208;18.988;2023-08-30T14:43:25;3.65;;;3.35;;
20348;SDS011;10332;50.208;18.988;2023-08-30T14:46:53;3.33;;;2.92;;
20348;SDS011;10332;50.208;18.988;2023-08-30T14:50:20;3.40;;;3.10;;
20348;SDS011;10332;50.208;18.988;2023-08-30T14:53:46;9.07;;;7.40;;
20348;SDS011;10332;50.208;18.988;2023-08-30T14:57:12;8.98;;;8.07;;
20348;SDS011;10332;50.208;18.988;2023-08-30T15:00:39;4.85;;;4.38;;
20348;SDS011;10332;50.208;18.988;2023-08-30T15:04:06;9.40;;;7.90;;
20348;SDS011;10332;50.208;18.988;2023-08-30T15:07:32;8.60;;;7.72;;
20348;SDS011;10332;50.208;18.988;2023-08-30T15:10:58;6.43;;;5.82;;
20348;SDS011;10332;50.208;18.988;2023-08-30T15:14:25;6.32;;;5.72;;
20348;SDS011;10332;50.208;18.988;2023-08-30T15:17:51;6.30;;;5.70;;
20348;SDS011;10332;50.208;18.988;2023-08-30T15:21:17;7.13;;;6.43;;
20348;SDS011;10332;50.208;18.988;2023-08-30T15:24:43;9.18;;;8.25;;
20348;SDS011;10332;50.208;18.988;2023-08-30T15:28:10;8.30;;;7.45;;
20348;SDS011;10332;50.208;18.988;2023-08-30T15:31:36;8.60;;;6.68;;
20348;SDS011;10332;50.208;18.988;2023-08-30T15:35:02;9.20;;;8.25;;
20348;SDS011;10332;50.208;18.988;2023-08-30T15:38:28;11.50;;;7.82;;
20348;SDS011;10332;50.208;18.988;2023-08-30T15:41:54;9.10;;;8.20;;
20348;SDS011;10332;50.208;18.988;2023-08-30T15:45:20;12.68;;;8.93;;
20348;SDS011;10332;50.208;18.988;2023-08-30T15:48:47;8.00;;;7.05;;
20348;SDS011;10332;50.208;18.988;2023-08-30T15:52:12;15.02;;;13.15;;
20348;SDS011;10332;50.208;18.988;2023-08-30T15:55:39;24.90;;;19.30;;
20348;SDS011;10332;50.208;18.988;2023-08-30T15:59:05;14.50;;;12.10;;
20348;SDS011;10332;50.208;18.988;2023-08-30T16:02:32;6.40;;;5.72;;
20348;SDS011;10332;50.208;18.988;2023-08-30T16:06:01;5.38;;;4.85;;
20348;SDS011;10332;50.208;18.988;2023-08-30T16:09:27;5.22;;;4.25;;
20348;SDS011;10332;50.208;18.988;2023-08-30T16:12:53;5.35;;;4.72;;
20348;SDS011;10332;50.208;18.988;2023-08-30T16:16:19;4.68;;;4.13;;
20348;SDS011;10332;50.208;18.988;2023-08-30T16:19:45;5.53;;;4.18;;
20348;SDS011;10332;50.208;18.988;2023-08-30T16:23:11;5.82;;;4.97;;
20348;SDS011;10332;50.208;18.988;2023-08-30T16:26:37;4.47;;;4.05;;
20348;SDS011;10332;50.208;18.988;2023-08-30T16:30:04;6.28;;;4.10;;
20348;SDS011;10332;50.208;18.988;2023-08-30T16:33:31;6.03;;;4.60;;
20348;SDS011;10332;50.208;18.988;2023-08-30T16:36:57;4.95;;;4.00;;
20348;SDS011;10332;50.208;18.988;2023-08-30T16:40:23;6.15;;;5.55;;
20348;SDS011;10332;50.208;18.988;2023-08-30T16:43:49;5.68;;;5.07;;
20348;SDS011;10332;50.208;18.988;2023-08-30T16:47:15;5.97;;;5.38;;
20348;SDS011;10332;50.208;18.988;2023-08-30T16:50:41;6.25;;;5.63;;
20348;SDS011;10332;50.208;18.988;2023-08-30T16:54:08;13.98;;;11.50;;
20348;SDS011;10332;50.208;18.988;2023-08-30T16:57:34;9.00;;;7.63;;
20348;SDS011;10332;50.208;18.988;2023-08-30T17:01:06;4.80;;;4.30;;
20348;SDS011;10332;50.208;18.988;2023-08-30T17:04:33;7.35;;;5.10;;
20348;SDS011;10332;50.208;18.988;2023-08-30T17:08:03;6.90;;;6.20;;
20348;SDS011;10332;50.208;18.988;2023-08-30T17:11:31;15.60;;;13.25;;
20348;SDS011;10332;50.208;18.988;2023-08-30T17:14:57;10.23;;;8.38;;
20348;SDS011;10332;50.208;18.988;2023-08-30T17:18:27;7.28;;;6.20;;
20348;SDS011;10332;50.208;18.988;2023-08-30T17:21:54;8.05;;;6.30;;
20348;SDS011;10332;50.208;18.988;2023-08-30T17:25:20;9.27;;;7.28;;
20348;SDS011;10332;50.208;18.988;2023-08-30T17:28:46;8.07;;;6.40;;
20348;SDS011;10332;50.208;18.988;2023-08-30T17:32:12;6.22;;;4.93;;
20348;SDS011;10332;50.208;18.988;2023-08-30T17:35:39;8.02;;;6.18;;
20348;SDS011;10332;50.208;18.988;2023-08-30T17:39:10;7.57;;;6.03;;
20348;SDS011;10332;50.208;18.988;2023-08-30T17:42:36;5.72;;;4.97;;
20348;SDS011;10332;50.208;18.988;2023-08-30T17:46:03;9.32;;;5.45;;
20348;SDS011;10332;50.208;18.988;2023-08-30T17:49:30;8.65;;;6.70;;
20348;SDS011;10332;50.208;18.988;2023-08-30T17:52:56;8.13;;;5.82;;
20348;SDS011;10332;50.208;18.988;2023-08-30T17:56:23;7.45;;;5.63;;
20348;SDS011;10332;50.208;18.988;2023-08-30T17:59:49;8.00;;;5.75;;
20348;SDS011;10332;50.208;18.988;2023-08-30T18:03:17;6.53;;;5.38;;
20348;SDS011;10332;50.208;18.988;2023-08-30T18:06:43;7.10;;;5.13;;
20348;SDS011;10332;50.208;18.988;2023-08-30T18:10:11;9.38;;;5.35;;
20348;SDS011;10332;50.208;18.988;2023-08-30T18:13:44;8.43;;;5.80;;
20348;SDS011;10332;50.208;18.988;2023-08-30T18:17:13;6.72;;;5.07;;
20348;SDS011;10332;50.208;18.988;2023-08-30T18:20:39;7.07;;;5.25;;
20348;SDS011;10332;50.208;18.988;2023-08-30T18:24:27;6.70;;;5.65;;
20348;SDS011;10332;50.208;18.988;2023-08-30T18:27:52;8.15;;;6.50;;
20348;SDS011;10332;50.208;18.988;2023-08-30T18:31:20;6.35;;;5.53;;
20348;SDS011;10332;50.208;18.988;2023-08-30T18:34:46;7.53;;;6.22;;
20348;SDS011;10332;50.208;18.988;2023-08-30T18:38:12;8.80;;;5.68;;
20348;SDS011;10332;50.208;18.988;2023-08-30T18:41:42;8.48;;;6.40;;
20348;SDS011;10332;50.208;18.988;2023-08-30T18:45:09;9.05;;;5.95;;
20348;SDS011;10332;50.208;18.988;2023-08-30T18:48:36;5.70;;;4.95;;
20348;SDS011;10332;50.208;18.988;2023-08-30T18:52:02;4.25;;;3.75;;
20348;SDS011;10332;50.208;18.988;2023-08-30T18:55:31;5.90;;;4.20;;
20348;SDS011;10332;50.208;18.988;2023-08-30T18:58:57;7.50;;;5.40;;
20348;SDS011;10332;50.208;18.988;2023-08-30T19:02:29;5.32;;;4.38;;
20348;SDS011;10332;50.208;18.988;2023-08-30T19:05:55;5.30;;;4.80;;
20348;SDS011;10332;50.208;18.988;2023-08-30T19:09:21;5.95;;;4.38;;
20348;SDS011;10332;50.208;18.988;2023-08-30T19:12:47;5.00;;;4.50;;
20348;SDS011;10332;50.208;18.988;2023-08-30T19:16:14;4.53;;;3.72;;
20348;SDS011;10332;50.208;18.988;2023-08-30T19:19:40;5.35;;;4.53;;
20348;SDS011;10332;50.208;18.988;2023-08-30T19:23:06;6.38;;;5.43;;
20348;SDS011;10332;50.208;18.988;2023-08-30T19:26:35;7.32;;;5.80;;
20348;SDS011;10332;50.208;18.988;2023-08-30T19:30:04;6.97;;;6.10;;
20348;SDS011;10332;50.208;18.988;2023-08-30T19:33:30;9.05;;;7.22;;
20348;SDS011;10332;50.208;18.988;2023-08-30T19:36:57;7.68;;;6.35;;
20348;SDS011;10332;50.208;18.988;2023-08-30T19:40:22;7.05;;;6.22;;
20348;SDS011;10332;50.208;18.988;2023-08-30T19:43:53;8.05;;;6.07;;
20348;SDS011;10332;50.208;18.988;2023-08-30T19:47:24;7.47;;;6.13;;
20348;SDS011;10332;50.208;18.988;2023-08-30T19:50:51;7.70;;;6.35;;
20348;SDS011;10332;50.208;18.988;2023-08-30T19:54:17;6.40;;;5.00;;
20348;SDS011;10332;50.208;18.988;2023-08-30T19:57:43;8.80;;;6.43;;
20348;SDS011;10332;50.208;18.988;2023-08-30T20:01:11;6.95;;;5.65;;
20348;SDS011;10332;50.208;18.988;2023-08-30T20:04:38;8.40;;;6.18;;
20348;SDS011;10332;50.208;18.988;2023-08-30T20:08:11;6.20;;;5.10;;
20348;SDS011;10332;50.208;18.988;2023-08-30T20:11:37;6.68;;;4.97;;
20348;SDS011;10332;50.208;18.988;2023-08-30T20:15:03;7.22;;;5.93;;
20348;SDS011;10332;50.208;18.988;2023-08-30T20:18:31;5.72;;;4.95;;
20348;SDS011;10332;50.208;18.988;2023-08-30T20:21:57;5.90;;;5.10;;
20348;SDS011;10332;50.208;18.988;2023-08-30T20:25:23;6.70;;;6.10;;
20348;SDS011;10332;50.208;18.988;2023-08-30T20:28:49;7.25;;;5.68;;
20348;SDS011;10332;50.208;18.988;2023-08-30T20:32:15;11.55;;;9.30;;